createdAt,value
2023-02-11T00:01:36.103Z,102184.31
2023-02-11T00:03:39.748Z,102184.34
2023-02-11T00:05:42.623Z,102173.00
2023-02-11T00:07:46.867Z,102173.84
2023-02-11T00:09:49.714Z,102162.44
2023-02-11T00:11:52.629Z,102157.22
2023-02-11T00:13:55.436Z,102155.50
2023-02-11T00:15:58.247Z,102143.28
2023-02-11T00:18:01.124Z,102151.97
2023-02-11T00:20:06.001Z,102144.09
2023-02-11T00:22:10.165Z,102131.84
2023-02-11T00:24:14.362Z,102140.59
2023-02-11T00:26:18.568Z,102129.22
2023-02-11T00:28:22.608Z,102130.97
2023-02-11T00:30:25.509Z,102134.44
2023-02-11T00:32:29.645Z,102138.84
2023-02-11T00:34:32.616Z,102147.59
2023-02-11T00:36:38.370Z,102148.44
2023-02-11T00:38:41.429Z,102143.13
2023-02-11T00:40:45.613Z,102151.91
2023-02-11T00:42:48.645Z,102153.69
2023-02-11T00:44:51.540Z,102151.06
2023-02-11T00:46:54.449Z,102166.75
2023-02-11T00:48:58.008Z,102161.56
2023-02-11T00:51:01.185Z,102153.69
2023-02-11T00:53:04.022Z,102148.47
2023-02-11T00:55:07.709Z,102142.34
2023-02-11T00:57:12.124Z,102138.84
2023-02-11T00:59:14.945Z,102134.44
2023-02-11T01:01:20.177Z,102132.69
2023-02-11T01:03:23.372Z,102129.19
2023-02-11T01:05:26.471Z,102125.66
2023-02-11T01:07:29.708Z,102125.66
2023-02-11T01:09:32.745Z,102116.97
2023-02-11T01:11:35.628Z,102127.44
2023-02-11T01:13:39.841Z,102132.72
2023-02-11T01:15:42.785Z,102128.38
2023-02-11T01:17:45.774Z,102127.44
2023-02-11T01:19:48.605Z,102134.47
2023-02-11T01:21:51.429Z,102140.63
2023-02-11T01:23:58.088Z,102137.97
2023-02-11T01:26:00.953Z,102141.47
2023-02-11T01:28:05.242Z,102139.72
2023-02-11T01:30:11.693Z,102134.47
2023-02-11T01:32:15.595Z,102138.88
2023-02-11T01:34:18.450Z,102142.34
2023-02-11T01:36:21.239Z,102144.97
2023-02-11T01:38:25.396Z,102139.75
2023-02-11T01:40:29.196Z,102141.53
2023-02-11T01:42:31.999Z,102151.09
2023-02-11T01:44:36.756Z,102141.53
2023-02-11T01:46:40.944Z,102137.13
2023-02-11T01:48:45.789Z,102138.03
2023-02-11T01:50:50.268Z,102139.72
2023-02-11T01:52:53.087Z,102126.63
2023-02-11T01:55:17.589Z,102123.13
2023-02-11T01:57:25.266Z,102122.25
2023-02-11T01:59:31.903Z,102127.53
2023-02-11T02:01:35.728Z,102137.13
2023-02-11T02:03:44.089Z,102136.28
2023-02-11T02:05:50.961Z,102127.53
2023-02-11T02:08:00.320Z,102125.72
2023-02-11T02:10:06.981Z,102123.94
2023-02-11T02:12:12.291Z,102126.56
2023-02-11T02:14:15.367Z,102125.66
2023-02-11T02:16:20.046Z,102109.94
2023-02-11T02:18:34.580Z,102101.22
2023-02-11T02:21:16.268Z,102082.81
2023-02-11T02:23:30.143Z,102069.72
2023-02-11T02:26:01.327Z,102073.25
2023-02-11T02:28:18.525Z,102082.00
2023-02-11T02:30:41.240Z,102093.34
2023-02-11T02:32:52.182Z,102097.72
2023-02-11T02:34:59.831Z,102082.84
2023-02-11T02:37:06.204Z,102088.09
2023-02-11T02:39:10.694Z,102091.59
2023-02-11T02:41:15.661Z,102102.94
2023-02-11T02:43:19.401Z,102093.34
2023-02-11T02:45:22.205Z,102097.72
2023-02-11T02:47:25.080Z,102090.72
2023-02-11T02:49:29.256Z,102082.88
2023-02-11T02:52:00.209Z,102083.69
2023-02-11T02:54:18.071Z,102081.09
2023-02-11T02:56:27.464Z,102091.56
2023-02-11T02:58:55.374Z,102088.97
2023-02-11T03:01:05.544Z,102086.28
2023-02-11T03:03:17.257Z,102082.84
2023-02-11T03:05:25.269Z,102075.84
2023-02-11T03:07:36.069Z,102072.34
2023-02-11T03:09:42.002Z,102073.22
2023-02-11T03:11:44.831Z,102082.03
2023-02-11T03:13:48.668Z,102090.72
2023-02-11T03:15:54.054Z,102091.63
2023-02-11T03:18:00.313Z,102090.69
2023-02-11T03:20:04.589Z,102092.44
2023-02-11T03:22:13.131Z,102089.88
2023-02-11T03:24:20.576Z,102090.69
2023-02-11T03:26:27.424Z,102094.19
2023-02-11T03:28:33.572Z,102096.81
2023-02-11T03:30:40.212Z,102101.22
2023-02-11T03:32:45.728Z,102105.53
2023-02-11T03:34:52.633Z,102108.16
2023-02-11T03:36:58.331Z,102105.59
2023-02-11T03:39:03.212Z,102110.88
2023-02-11T03:41:07.485Z,102093.31
2023-02-11T03:43:13.501Z,102092.53
2023-02-11T03:45:19.315Z,102095.94
2023-02-11T03:47:24.805Z,102094.22
2023-02-11T03:49:28.741Z,102080.22
2023-02-11T03:51:33.175Z,102084.59
2023-02-11T03:53:36.634Z,102089.00
2023-02-11T03:55:42.192Z,102091.56
2023-02-11T03:57:45.132Z,102078.47
2023-02-11T03:59:52.274Z,102080.22
2023-02-11T04:01:55.576Z,102084.63
2023-02-11T04:03:58.417Z,102081.09
2023-02-11T04:06:01.305Z,102088.94
2023-02-11T04:08:04.570Z,102084.53
2023-02-11T04:10:08.242Z,102087.22
2023-02-11T04:12:12.515Z,102071.44
2023-02-11T04:14:15.491Z,102071.44
2023-02-11T04:16:18.353Z,102074.06
2023-02-11T04:18:21.166Z,102065.25
2023-02-11T04:20:24.046Z,102065.25
2023-02-11T04:22:26.909Z,102068.81
2023-02-11T04:24:29.971Z,102073.13
2023-02-11T04:26:32.748Z,102074.00
2023-02-11T04:28:37.077Z,102078.34
2023-02-11T04:30:40.265Z,102076.59
2023-02-11T04:32:43.085Z,102094.06
2023-02-11T04:34:45.873Z,102110.75
2023-02-11T04:36:48.669Z,102116.88
2023-02-11T04:38:51.420Z,102120.38
2023-02-11T04:40:54.194Z,102115.91
2023-02-11T04:42:57.070Z,102117.69
2023-02-11T04:45:01.794Z,102122.03
2023-02-11T04:47:04.644Z,102119.44
2023-02-11T04:49:07.500Z,102119.47
2023-02-11T04:51:10.542Z,102115.13
2023-02-11T04:53:13.399Z,102113.34
2023-02-11T04:55:16.316Z,102101.94
2023-02-11T04:57:19.196Z,102101.91
2023-02-11T04:59:21.995Z,102109.75
2023-02-11T05:01:26.267Z,102108.91
2023-02-11T05:03:29.152Z,102111.56
2023-02-11T05:05:32.037Z,102109.78
2023-02-11T05:07:34.932Z,102108.94
2023-02-11T05:09:37.803Z,102113.16
2023-02-11T05:11:40.653Z,102107.06
2023-02-11T05:13:43.539Z,102090.50
2023-02-11T05:15:46.362Z,102106.31
2023-02-11T05:17:50.601Z,102108.03
2023-02-11T05:19:53.450Z,102116.81
2023-02-11T05:22:02.547Z,102109.84
2023-02-11T05:24:06.948Z,102109.69
2023-02-11T05:26:10.288Z,102103.56
2023-02-11T05:28:13.306Z,102106.31
2023-02-11T05:30:16.312Z,102107.13
2023-02-11T05:32:19.082Z,102110.66
2023-02-11T05:34:23.251Z,102105.34
2023-02-11T05:36:26.095Z,102126.31
2023-02-11T05:38:29.045Z,102120.19
2023-02-11T05:40:31.890Z,102123.72
2023-02-11T05:42:34.757Z,102118.47
2023-02-11T05:44:37.730Z,102114.16
2023-02-11T05:46:40.699Z,102115.84
2023-02-11T05:48:43.526Z,102110.56
2023-02-11T05:50:47.774Z,102111.44
2023-02-11T05:52:50.642Z,102109.69
2023-02-11T05:54:53.630Z,102110.59
2023-02-11T05:56:56.482Z,102114.09
2023-02-11T05:58:59.816Z,102116.66
2023-02-11T06:01:02.648Z,102115.00
2023-02-11T06:03:06.160Z,102124.66
2023-02-11T06:05:12.413Z,102121.16
2023-02-11T06:07:17.412Z,102120.31
2023-02-11T06:10:00.821Z,102118.59
2023-02-11T06:12:03.628Z,102115.03
2023-02-11T06:14:06.542Z,102120.31
2023-02-11T06:16:09.498Z,102127.28
2023-02-11T06:18:12.429Z,102119.38
2023-02-11T06:20:15.469Z,102123.72
2023-02-11T06:22:19.679Z,102115.06
2023-02-11T06:24:44.308Z,102111.56
2023-02-11T06:26:45.320Z,102112.38
2023-02-11T06:28:48.474Z,102106.31
2023-02-11T06:30:51.407Z,102109.78
2023-02-11T06:32:54.758Z,102105.34
2023-02-11T06:34:57.753Z,102119.34
2023-02-11T06:37:00.575Z,102108.03
2023-02-11T06:39:05.096Z,102114.16
2023-02-11T06:41:10.632Z,102104.59
2023-02-11T06:43:13.443Z,102096.66
2023-02-11T06:45:16.354Z,102106.31
2023-02-11T06:47:19.191Z,102109.75
2023-02-11T06:49:22.077Z,102115.06
2023-02-11T06:51:25.026Z,102115.03
2023-02-11T06:53:27.859Z,102118.53
2023-02-11T06:55:32.050Z,102125.56
2023-02-11T06:57:34.901Z,102113.41
2023-02-11T06:59:37.744Z,102123.00
2023-02-11T07:01:40.577Z,102116.88
2023-02-11T07:03:44.859Z,102115.13
2023-02-11T07:05:47.710Z,102121.31
2023-02-11T07:07:50.610Z,102120.38
2023-02-11T07:09:53.535Z,102128.25
2023-02-11T07:11:57.827Z,102127.34
2023-02-11T07:14:02.493Z,102132.53
2023-02-11T07:16:07.334Z,102120.31
2023-02-11T07:18:11.937Z,102125.56
2023-02-11T07:20:15.925Z,102126.50
2023-02-11T07:22:18.864Z,102131.75
2023-02-11T07:24:21.746Z,102129.19
2023-02-11T07:26:25.752Z,102127.41
2023-02-11T07:28:30.067Z,102130.03
2023-02-11T07:30:32.951Z,102135.28
2023-02-11T07:32:35.849Z,102137.00
2023-02-11T07:34:38.795Z,102136.22
2023-02-11T07:36:43.705Z,102134.47
2023-02-11T07:38:47.183Z,102142.25
2023-02-11T07:40:49.998Z,102135.22
2023-02-11T07:42:52.889Z,102141.34
2023-02-11T07:44:57.052Z,102138.84
2023-02-11T07:47:00.053Z,102140.50
2023-02-11T07:49:02.964Z,102137.94
2023-02-11T07:51:10.333Z,102146.53
2023-02-11T07:53:13.160Z,102146.66
2023-02-11T07:55:16.191Z,102145.81
2023-02-11T07:57:19.274Z,102144.97
2023-02-11T07:59:22.304Z,102143.94
2023-02-11T08:01:28.700Z,102147.53
2023-02-11T08:03:31.792Z,102144.97
2023-02-11T08:05:34.604Z,102155.44
2023-02-11T08:07:37.494Z,102159.78
2023-02-11T08:09:40.268Z,102155.41
2023-02-11T08:11:43.159Z,102164.13
2023-02-11T08:13:46.520Z,102158.94
2023-02-11T08:15:49.898Z,102154.47
2023-02-11T08:17:54.253Z,102169.44
2023-02-11T08:19:57.053Z,102173.78
2023-02-11T08:22:01.348Z,102172.91
2023-02-11T08:24:04.828Z,102162.41
2023-02-11T08:26:10.020Z,102168.59
2023-02-11T08:28:12.931Z,102169.44
2023-02-11T08:30:15.999Z,102176.47
2023-02-11T08:32:18.953Z,102169.47
2023-02-11T08:34:23.514Z,102192.25
2023-02-11T08:36:28.548Z,102191.31
2023-02-11T08:38:31.363Z,102192.22
2023-02-11T08:40:34.398Z,102200.13
2023-02-11T08:42:37.233Z,102199.28
2023-02-11T08:44:40.587Z,102202.75
2023-02-11T08:46:43.415Z,102202.75
2023-02-11T08:48:46.651Z,102204.53
2023-02-11T08:50:50.902Z,102197.50
2023-02-11T08:52:53.814Z,102193.13
2023-02-11T08:54:56.752Z,102201.91
2023-02-11T08:57:00.216Z,102204.53
2023-02-11T08:59:03.142Z,102206.28
2023-02-11T09:01:10.571Z,102207.16
2023-02-11T09:03:13.675Z,102207.06
2023-02-11T09:05:16.588Z,102209.78
2023-02-11T09:07:21.120Z,102212.41
2023-02-11T09:09:24.325Z,102215.88
2023-02-11T09:11:31.383Z,102216.81
2023-02-11T09:13:34.830Z,102218.53
2023-02-11T09:15:37.685Z,102213.25
2023-02-11T09:17:40.565Z,102218.50
2023-02-11T09:19:43.396Z,102215.88
2023-02-11T09:21:46.745Z,102221.19
2023-02-11T09:23:51.019Z,102226.44
2023-02-11T09:25:53.915Z,102220.25
2023-02-11T09:27:57.055Z,102225.53
2023-02-11T09:29:59.898Z,102223.75
2023-02-11T09:32:03.010Z,102227.28
2023-02-11T09:34:06.829Z,102216.81
2023-02-11T09:36:10.631Z,102222.91
2023-02-11T09:38:13.543Z,102230.88
2023-02-11T09:40:19.930Z,102227.34
2023-02-11T09:42:41.942Z,102229.09
2023-02-11T09:44:46.523Z,102239.66
2023-02-11T09:46:55.649Z,102240.53
2023-02-11T09:48:58.977Z,102232.63
2023-02-11T09:51:02.764Z,102246.66
2023-02-11T09:53:07.940Z,102248.44
2023-02-11T09:55:18.678Z,102246.72
2023-02-11T09:57:28.490Z,102245.81
2023-02-11T09:59:32.372Z,102244.06
2023-02-11T10:01:39.319Z,102237.06
2023-02-11T10:03:54.153Z,102237.94
2023-02-11T10:06:20.874Z,102245.81
2023-02-11T10:08:31.859Z,102233.59
2023-02-11T10:10:45.781Z,102237.97
2023-02-11T10:12:59.334Z,102249.34
2023-02-11T10:15:09.886Z,102247.56
2023-02-11T10:17:17.865Z,102244.09
2023-02-11T10:19:44.357Z,102248.53
2023-02-11T10:21:54.565Z,102256.41
2023-02-11T10:24:00.274Z,102256.38
2023-02-11T10:26:07.015Z,102255.47
2023-02-11T10:28:14.848Z,102255.47
2023-02-11T10:30:23.819Z,102253.72
2023-02-11T10:32:32.638Z,102265.09
2023-02-11T10:34:45.328Z,102259.84
2023-02-11T10:36:48.257Z,102260.72
2023-02-11T10:38:51.109Z,102268.63
2023-02-11T10:40:53.957Z,102271.31
2023-02-11T10:43:00.218Z,102263.41
2023-02-11T10:45:06.308Z,102266.91
2023-02-11T10:47:12.476Z,102268.63
2023-02-11T10:49:35.165Z,102270.41
2023-02-11T10:51:38.129Z,102266.94
2023-02-11T10:53:41.039Z,102272.16
2023-02-11T10:55:51.851Z,102269.53
2023-02-11T10:57:59.644Z,102277.44
2023-02-11T11:00:08.951Z,102273.06
2023-02-11T11:02:22.880Z,102266.91
2023-02-11T11:04:36.670Z,102268.69
2023-02-11T11:06:40.465Z,102266.94
2023-02-11T11:08:45.937Z,102266.06
2023-02-11T11:10:50.713Z,102265.16
2023-02-11T11:12:53.748Z,102266.03
2023-02-11T11:14:59.868Z,102259.91
2023-02-11T11:17:02.694Z,102267.81
2023-02-11T11:19:22.900Z,102272.19
2023-02-11T11:21:27.528Z,102268.66
2023-02-11T11:23:31.750Z,102268.63
2023-02-11T11:25:34.835Z,102273.06
2023-02-11T11:27:37.789Z,102276.56
2023-02-11T11:29:45.084Z,102272.19
2023-02-11T11:31:51.827Z,102279.19
2023-02-11T11:33:56.915Z,102275.69
2023-02-11T11:36:09.469Z,102278.31
2023-02-11T11:38:14.589Z,102271.31
2023-02-11T11:40:25.694Z,102270.44
2023-02-11T11:42:30.314Z,102275.69
2023-02-11T11:44:34.736Z,102267.81
2023-02-11T11:46:39.904Z,102272.16
2023-02-11T11:48:48.289Z,102272.19
2023-02-11T11:50:53.438Z,102272.16
2023-02-11T11:53:01.522Z,102268.66
2023-02-11T11:55:10.424Z,102277.41
2023-02-11T11:57:16.642Z,102275.69
2023-02-11T11:59:19.571Z,102266.00
2023-02-11T12:01:31.923Z,102259.88
2023-02-11T12:04:08.626Z,102247.59
2023-02-11T12:06:30.744Z,102246.69
2023-02-11T12:08:40.738Z,102240.56
2023-02-11T12:11:03.654Z,102237.91
2023-02-11T12:13:26.569Z,102236.16
2023-02-11T12:15:33.763Z,102242.28
2023-02-11T12:17:52.759Z,102241.38
2023-02-11T12:20:14.408Z,102242.34
2023-02-11T12:22:27.631Z,102241.50
2023-02-11T12:24:53.254Z,102250.25
2023-02-11T12:27:00.740Z,102247.59
2023-02-11T12:29:09.915Z,102245.00
2023-02-11T12:31:20.162Z,102244.13
2023-02-11T12:33:35.586Z,102244.13
2023-02-11T12:35:44.493Z,102246.72
2023-02-11T12:38:15.968Z,102249.31
2023-02-11T12:40:24.275Z,102250.22
2023-02-11T12:43:06.461Z,102255.47
2023-02-11T12:45:20.863Z,102252.84
2023-02-11T12:47:29.393Z,102260.72
2023-02-11T12:49:53.929Z,102251.91
2023-02-11T12:52:06.658Z,102253.63
2023-02-11T12:54:19.954Z,102248.34
2023-02-11T12:56:25.631Z,102247.44
2023-02-11T12:58:44.005Z,102246.69
2023-02-11T13:00:50.917Z,102250.22
2023-02-11T13:02:58.093Z,102258.06
2023-02-11T13:05:03.306Z,102258.97
2023-02-11T13:07:12.924Z,102256.38
2023-02-11T13:09:21.187Z,102250.19
2023-02-11T13:11:25.952Z,102252.78
2023-02-11T13:13:30.721Z,102250.19
2023-02-11T13:15:34.265Z,102243.13
2023-02-11T13:17:39.458Z,102232.69
2023-02-11T13:19:45.659Z,102234.41
2023-02-11T13:21:57.295Z,102223.91
2023-02-11T13:24:06.473Z,102224.69
2023-02-11T13:26:16.185Z,102225.63
2023-02-11T13:28:27.129Z,102220.34
2023-02-11T13:30:34.071Z,102222.13
2023-02-11T13:33:03.435Z,102225.63
2023-02-11T13:35:28.014Z,102230.91
2023-02-11T13:37:34.006Z,102230.88
2023-02-11T13:39:37.015Z,102236.13
2023-02-11T13:41:43.584Z,102237.88
2023-02-11T13:43:46.563Z,102234.28
2023-02-11T13:45:50.518Z,102234.25
2023-02-11T13:47:58.202Z,102236.00
2023-02-11T13:50:01.923Z,102246.53
2023-02-11T13:52:06.753Z,102246.47
2023-02-11T13:54:14.278Z,102243.03
2023-02-11T13:56:30.381Z,102250.09
2023-02-11T13:58:39.996Z,102251.81
2023-02-11T14:00:48.301Z,102249.16
2023-02-11T14:03:42.946Z,102248.41
2023-02-11T14:06:30.176Z,102242.19
2023-02-11T14:09:05.302Z,102253.56
2023-02-11T14:11:12.707Z,102251.81
2023-02-11T14:13:23.507Z,102252.63
2023-02-11T14:15:28.686Z,102247.47
2023-02-11T14:17:33.113Z,102245.66
2023-02-11T14:19:37.445Z,102236.03
2023-02-11T14:21:42.332Z,102244.81
2023-02-11T14:23:45.257Z,102242.97
2023-02-11T14:25:54.949Z,102247.44
2023-02-11T14:28:01.979Z,102249.19
2023-02-11T14:30:21.535Z,102250.94
2023-02-11T14:32:40.899Z,102250.94
2023-02-11T14:34:50.453Z,102246.59
2023-02-11T14:37:02.490Z,102253.53
2023-02-11T14:39:10.742Z,102246.59
2023-02-11T14:41:19.794Z,102244.75
2023-02-11T14:43:27.814Z,102242.13
2023-02-11T14:45:32.395Z,102242.09
2023-02-11T14:47:42.432Z,102239.47
2023-02-11T14:49:46.123Z,102243.84
2023-02-11T14:51:49.049Z,102239.38
2023-02-11T14:53:54.306Z,102241.16
2023-02-11T14:55:57.125Z,102241.03
2023-02-11T14:58:13.498Z,102241.03
2023-02-11T15:00:21.597Z,102241.09
2023-02-11T15:02:26.418Z,102234.97
2023-02-11T15:04:32.681Z,102238.50
2023-02-11T15:06:38.563Z,102239.34
2023-02-11T15:08:45.772Z,102242.91
2023-02-11T15:10:48.745Z,102248.13
2023-02-11T15:12:52.395Z,102247.22
2023-02-11T15:14:57.447Z,102243.81
2023-02-11T15:17:02.712Z,102249.88
2023-02-11T15:19:07.478Z,102245.47
2023-02-11T15:21:11.912Z,102247.38
2023-02-11T15:23:20.893Z,102239.41
2023-02-11T15:25:24.106Z,102251.75
2023-02-11T15:27:27.296Z,102256.19
2023-02-11T15:29:37.521Z,102262.28
2023-02-11T15:31:40.472Z,102265.75
2023-02-11T15:33:43.411Z,102261.34
2023-02-11T15:35:46.320Z,102262.25
2023-02-11T15:37:50.786Z,102249.94
2023-02-11T15:39:54.654Z,102259.63
2023-02-11T15:41:57.553Z,102259.63
2023-02-11T15:44:00.531Z,102252.66
2023-02-11T15:46:03.887Z,102254.47
2023-02-11T15:48:09.189Z,102265.78
2023-02-11T15:50:22.056Z,102260.47
2023-02-11T15:52:26.568Z,102257.06
2023-02-11T15:54:32.130Z,102262.34
2023-02-11T15:56:43.105Z,102269.34
2023-02-11T15:58:48.968Z,102271.97
2023-02-11T16:00:54.757Z,102269.28
2023-02-11T16:02:57.666Z,102274.59
2023-02-11T16:05:02.091Z,102269.34
2023-02-11T16:07:05.180Z,102276.38
2023-02-11T16:09:25.271Z,102274.56
2023-02-11T16:11:31.535Z,102275.47
2023-02-11T16:13:34.601Z,102270.16
2023-02-11T16:15:49.891Z,102268.50
2023-02-11T16:17:54.497Z,102281.66
2023-02-11T16:19:57.546Z,102279.94
2023-02-11T16:22:02.558Z,102278.13
2023-02-11T16:24:07.349Z,102285.97
2023-02-11T16:26:13.951Z,102285.03
2023-02-11T16:28:18.231Z,102285.03
2023-02-11T16:30:29.166Z,102292.13
2023-02-11T16:32:32.116Z,102289.50
2023-02-11T16:34:34.961Z,102290.44
2023-02-11T16:36:37.842Z,102296.56
2023-02-11T16:38:41.019Z,102293.03
2023-02-11T16:40:46.314Z,102295.66
2023-02-11T16:42:49.418Z,102310.53
2023-02-11T16:44:53.757Z,102306.16
2023-02-11T16:46:56.853Z,102311.38
2023-02-11T16:49:05.287Z,102306.19
2023-02-11T16:51:09.696Z,102308.75
2023-02-11T16:53:13.039Z,102309.72
2023-02-11T16:55:15.965Z,102310.56
2023-02-11T16:57:21.068Z,102306.19
2023-02-11T16:59:24.234Z,102309.69
2023-02-11T17:01:28.496Z,102308.81
2023-02-11T17:03:35.618Z,102305.31
2023-02-11T17:05:54.436Z,102309.72
2023-02-11T17:07:58.118Z,102306.19
2023-02-11T17:10:01.058Z,102307.06
2023-02-11T17:12:03.912Z,102310.59
2023-02-11T17:14:06.744Z,102315.00
2023-02-11T17:16:17.473Z,102318.53
2023-02-11T17:18:21.797Z,102320.28
2023-02-11T17:20:24.729Z,102324.66
2023-02-11T17:22:27.592Z,102320.22
2023-02-11T17:24:30.527Z,102327.22
2023-02-11T17:26:35.332Z,102329.03
2023-02-11T17:28:38.225Z,102335.13
2023-02-11T17:30:43.571Z,102324.66
2023-02-11T17:32:47.263Z,102339.53
2023-02-11T17:34:51.490Z,102332.50
2023-02-11T17:36:54.503Z,102341.28
2023-02-11T17:38:58.127Z,102330.69
2023-02-11T17:41:01.792Z,102335.19
2023-02-11T17:43:04.785Z,102343.13
2023-02-11T17:45:08.846Z,102347.50
2023-02-11T17:47:11.786Z,102344.00
2023-02-11T17:49:14.670Z,102343.97
2023-02-11T17:51:26.798Z,102351.84
2023-02-11T17:53:29.872Z,102353.56
2023-02-11T17:55:34.194Z,102352.72
2023-02-11T17:57:37.137Z,102352.72
2023-02-11T17:59:40.560Z,102358.91
2023-02-11T18:01:44.553Z,102357.97
2023-02-11T18:03:47.518Z,102359.69
2023-02-11T18:05:50.847Z,102361.47
2023-02-11T18:07:55.604Z,102364.97
2023-02-11T18:09:58.425Z,102359.75
2023-02-11T18:12:01.261Z,102366.75
2023-02-11T18:14:07.723Z,102360.63
2023-02-11T18:16:15.740Z,102371.19
2023-02-11T18:18:18.762Z,102359.78
2023-02-11T18:20:21.755Z,102365.03
2023-02-11T18:22:24.973Z,102372.06
2023-02-11T18:24:29.212Z,102373.84
2023-02-11T18:26:32.198Z,102372.09
2023-02-11T18:28:35.980Z,102372.09
2023-02-11T18:30:38.935Z,102373.84
2023-02-11T18:32:41.774Z,102376.50
2023-02-11T18:34:44.605Z,102380.88
2023-02-11T18:36:47.897Z,102384.38
2023-02-11T18:38:52.576Z,102384.38
2023-02-11T18:40:58.415Z,102394.03
2023-02-11T18:43:01.230Z,102390.56
2023-02-11T18:45:04.486Z,102387.06
2023-02-11T18:47:07.421Z,102382.69
2023-02-11T18:49:13.130Z,102391.41
2023-02-11T18:51:18.374Z,102392.31
2023-02-11T18:53:21.657Z,102384.44
2023-02-11T18:55:25.839Z,102387.03
2023-02-11T18:57:30.074Z,102394.06
2023-02-11T18:59:32.885Z,102393.19
2023-02-11T19:01:36.033Z,102395.78
2023-02-11T19:03:39.207Z,102391.41
2023-02-11T19:05:42.769Z,102396.69
2023-02-11T19:07:45.920Z,102402.81
2023-02-11T19:09:49.024Z,102399.34
2023-02-11T19:11:53.997Z,102401.06
2023-02-11T19:13:58.791Z,102403.72
2023-02-11T19:16:01.786Z,102419.47
2023-02-11T19:18:04.665Z,102417.75
2023-02-11T19:20:09.035Z,102416.88
2023-02-11T19:22:11.894Z,102418.63
2023-02-11T19:24:17.076Z,102414.22
2023-02-11T19:26:24.829Z,102413.34
2023-02-11T19:28:27.696Z,102420.38
2023-02-11T19:30:32.070Z,102425.63
2023-02-11T19:32:35.047Z,102426.50
2023-02-11T19:34:41.488Z,102424.75
2023-02-11T19:36:44.704Z,102430.03
2023-02-11T19:38:47.900Z,102431.75
2023-02-11T19:40:56.912Z,102436.16
2023-02-11T19:42:59.801Z,102441.41
2023-02-11T19:45:02.597Z,102438.78
2023-02-11T19:47:07.719Z,102437.91
2023-02-11T19:49:11.005Z,102437.03
2023-02-11T19:51:13.893Z,102442.28
2023-02-11T19:53:16.926Z,102440.53
2023-02-11T19:55:19.971Z,102443.16
2023-02-11T19:57:22.852Z,102449.34
2023-02-11T19:59:25.759Z,102452.84
2023-02-11T20:01:28.688Z,102450.22
2023-02-11T20:03:32.951Z,102453.75
2023-02-11T20:05:36.353Z,102452.84
2023-02-11T20:07:39.240Z,102458.16
2023-02-11T20:09:42.585Z,102464.25
2023-02-11T20:11:45.719Z,102457.25
2023-02-11T20:13:49.197Z,102447.56
2023-02-11T20:15:52.679Z,102453.75
2023-02-11T20:17:55.686Z,102451.09
2023-02-11T20:19:59.950Z,102451.09
2023-02-11T20:22:02.797Z,102449.34
2023-02-11T20:24:05.800Z,102451.97
2023-02-11T20:26:09.694Z,102452.88
2023-02-11T20:28:12.534Z,102449.34
2023-02-11T20:30:16.174Z,102451.13
2023-02-11T20:32:19.123Z,102455.50
2023-02-11T20:34:24.513Z,102451.09
2023-02-11T20:36:32.249Z,102453.75
2023-02-11T20:38:35.431Z,102465.16
2023-02-11T20:40:38.409Z,102459.00
2023-02-11T20:42:41.300Z,102465.13
2023-02-11T20:44:44.079Z,102472.16
2023-02-11T20:46:47.558Z,102462.50
2023-02-11T20:48:50.979Z,102469.53
2023-02-11T20:50:54.098Z,102471.31
2023-02-11T20:52:58.367Z,102473.03
2023-02-11T20:55:01.625Z,102472.19
2023-02-11T20:57:04.569Z,102479.19
2023-02-11T20:59:07.728Z,102484.44
2023-02-11T21:01:11.256Z,102475.69
2023-02-11T21:03:14.128Z,102494.09
2023-02-11T21:05:17.115Z,102493.25
2023-02-11T21:07:20.323Z,102503.78
2023-02-11T21:09:26.374Z,102496.75
2023-02-11T21:11:29.512Z,102504.66
2023-02-11T21:13:32.511Z,102498.50
2023-02-11T21:15:35.356Z,102507.28
2023-02-11T21:17:38.172Z,102509.94
2023-02-11T21:19:41.380Z,102509.06
2023-02-11T21:21:44.271Z,102509.91
2023-02-11T21:23:47.572Z,102505.56
2023-02-11T21:25:52.235Z,102503.75
2023-02-11T21:27:55.082Z,102502.00
2023-02-11T21:29:57.939Z,102503.78
2023-02-11T21:32:00.796Z,102496.75
2023-02-11T21:34:03.792Z,102500.28
2023-02-11T21:36:07.970Z,102494.13
2023-02-11T21:38:10.872Z,102492.38
2023-02-11T21:40:14.864Z,102495.00
2023-02-11T21:42:19.076Z,102491.50
2023-02-11T21:44:21.949Z,102495.91
2023-02-11T21:46:24.935Z,102495.00
2023-02-11T21:48:28.123Z,102499.41
2023-02-11T21:50:30.919Z,102488.84
2023-02-11T21:52:33.924Z,102502.03
2023-02-11T21:54:36.746Z,102503.78
2023-02-11T21:56:40.549Z,102502.00
2023-02-11T21:58:44.797Z,102502.00
2023-02-11T22:00:47.687Z,102513.44
2023-02-11T22:02:50.596Z,102506.44
2023-02-11T22:04:53.730Z,102517.84
2023-02-11T22:06:56.643Z,102512.56
2023-02-11T22:09:00.122Z,102507.28
2023-02-11T22:11:04.330Z,102515.22
2023-02-11T22:13:07.302Z,102522.22
2023-02-11T22:15:11.862Z,102523.13
2023-02-11T22:17:14.854Z,102526.59
2023-02-11T22:19:18.826Z,102522.22
2023-02-11T22:21:23.082Z,102530.13
2023-02-11T22:23:25.947Z,102529.25
2023-02-11T22:25:29.069Z,102540.66
2023-02-11T22:27:31.920Z,102542.44
2023-02-11T22:29:34.824Z,102536.25
2023-02-11T22:31:39.261Z,102544.16
2023-02-11T22:33:42.580Z,102538.91
2023-02-11T22:35:45.431Z,102542.41
2023-02-11T22:37:48.298Z,102545.06
2023-02-11T22:39:51.384Z,102543.28
2023-02-11T22:41:56.514Z,102547.69
2023-02-11T22:43:59.444Z,102548.56
2023-02-11T22:46:02.805Z,102550.31
2023-02-11T22:48:07.425Z,102546.81
2023-02-11T22:50:10.765Z,102550.34
2023-02-11T22:52:13.625Z,102555.59
2023-02-11T22:54:17.999Z,102553.81
2023-02-11T22:56:21.285Z,102554.72
2023-02-11T22:58:24.233Z,102553.81
2023-02-11T23:00:27.519Z,102551.19
2023-02-11T23:02:30.424Z,102558.22
2023-02-11T23:04:34.672Z,102555.59
2023-02-11T23:06:37.560Z,102560.88
2023-02-11T23:08:42.782Z,102564.38
2023-02-11T23:10:45.626Z,102569.66
2023-02-11T23:12:48.519Z,102569.66
2023-02-11T23:14:52.026Z,102569.66
2023-02-11T23:16:54.924Z,102574.94
2023-02-11T23:18:59.945Z,102567.03
2023-02-11T23:21:11.326Z,102579.28
2023-02-11T23:23:15.241Z,102577.56
2023-02-11T23:25:18.283Z,102586.31
2023-02-11T23:27:21.196Z,102581.06
2023-02-11T23:29:24.010Z,102581.94
2023-02-11T23:31:28.483Z,102584.56
2023-02-11T23:33:31.345Z,102585.44
2023-02-11T23:35:34.314Z,102576.69
2023-02-11T23:37:38.537Z,102575.78
2023-02-11T23:39:41.403Z,102573.16
2023-02-11T23:41:44.292Z,102580.16
2023-02-11T23:43:50.461Z,102580.16
2023-02-11T23:45:53.722Z,102576.66
2023-02-11T23:47:57.349Z,102583.69
2023-02-11T23:50:00.184Z,102573.13
2023-02-11T23:52:03.148Z,102578.44
2023-02-11T23:54:07.397Z,102578.41
2023-02-11T23:56:11.952Z,102580.19